Time;durP1;ratioP1;P1;durP2;ratioP2;P2;SDS_P1;SDS_P2;PMS_P1;PMS_P2;Temp;Humidity;BMP_temperature;BMP_pressure;BME280_temperature;BME280_humidity;BME280_pressure;Samples;Min_cycle;Max_cycle;Signal;HPM_P1;HPM_P2
2022/12/24 00:01:27;;;;;;;;;;;;;;;;;;5000019;28;20425;-77
2022/12/24 00:03:53;;;;;;;;;;;;;;;;;;4981392;28;19910;-78
2022/12/24 00:06:19;;;;;;;;;;;;;;;;;;4982003;28;20268;-77
2022/12/24 00:08:45;;;;;;;;;;;;;;;;;;4999715;28;19910;-77
2022/12/24 00:11:10;;;;;;;;;;;;;;;;;;4981936;28;20370;-77
2022/12/24 00:13:36;;;;;;;;;;;;;;;;;;4981867;28;19910;-77
2022/12/24 00:16:02;;;;;;;;;;;;;;;;;;4983822;28;20441;-77
2022/12/24 00:18:28;;;;;;;;;;;;;;;;;;4981972;28;19916;-75
2022/12/24 00:20:54;;;;;;;;;;;;;;;;;;4999395;28;20017;-77
2022/12/24 00:23:20;;;;;;;;;;;;;;;;;;4981586;28;19910;-78
2022/12/24 00:25:46;;;;;;;;;;;;;;;;;;4981537;28;19910;-77
2022/12/24 00:28:12;;;;;;;;;;;;;;;;;;4998956;28;19910;-77
2022/12/24 00:30:37;;;;;;;;;;;;;;;;;;4982704;28;20374;-77
2022/12/24 00:33:03;;;;;;;;;;;;;;;;;;4981263;28;19957;-77
2022/12/24 00:35:29;;;;;;;;;;;;;;;;;;4981465;28;19964;-77
2022/12/24 00:37:55;;;;;;;;;;;;;;;;;;4998702;28;20004;-77
2022/12/24 00:40:21;;;;;;;;;;;;;;;;;;4981415;28;19910;-76
2022/12/24 00:42:47;;;;;;;;;;;;;;;;;;4997979;28;20398;-76
2022/12/24 00:45:13;;;;;;;;;;;;;;;;;;4979994;28;20012;-76
2022/12/24 00:47:39;;;;;;;;;;;;;;;;;;4982947;28;19969;-78
2022/12/24 00:50:05;;;;;;;;;;;;;;;;;;4980972;28;20008;-78
2022/12/24 00:52:31;;;;;;;;;;;;;;;;;;4981132;28;19910;-77
2022/12/24 00:54:56;;;;;;;;;;;;;;;;;;4999909;28;19925;-77
2022/12/24 00:57:22;;;;;;;;;;;;;;;;;;4980470;28;19917;-78
2022/12/24 00:59:48;;;;;;;;;;;;;;;;;;4980781;28;19914;-77
2022/12/24 01:02:14;;;;;;;;;;;;;;;;;;4980884;28;19957;-77
2022/12/24 01:07:25;;;;;;;;;;;;;;;;;;4999012;28;19956;-78
2022/12/24 01:09:50;;;;;;;;;;;;;;;;;;5000093;28;19997;-78
2022/12/24 01:12:16;;;;;;;;;;;;;;;;;;4982521;28;19910;-77
2022/12/24 01:14:42;;;;;;;;;;;;;;;;;;5000367;28;19910;-76
2022/12/24 01:17:08;;;;;;;;;;;;;;;;;;5000371;28;20359;-77
2022/12/24 01:19:34;;;;;;;;;;;;;;;;;;5000600;28;19910;-78
2022/12/24 01:22:00;;;;;;;;;;;;;;;;;;5000784;28;19910;-77
2022/12/24 01:24:26;;;;;;;;;;;;;;;;;;4981964;28;19910;-77
2022/12/24 01:26:52;;;;;;;;;;;;;;;;;;4982727;28;19949;-77
2022/12/24 01:29:18;;;;;;;;;;;;;;;;;;4982830;28;19910;-77
2022/12/24 01:31:43;;;;;;;;;;;;;;;;;;5000098;28;19920;-78
2022/12/24 01:34:09;;;;;;;;;;;;;;;;;;4982358;28;20012;-77
2022/12/24 01:36:35;;;;;;;;;;;;;;;;;;4999281;28;19917;-78
2022/12/24 01:39:01;;;;;;;;;;;;;;;;;;4998682;28;19909;-77
2022/12/24 01:44:11;;;;;;;;;;;;;;;;;;4998279;28;19956;-77
2022/12/24 01:46:37;;;;;;;;;;;;;;;;;;4998701;28;19918;-78
2022/12/24 01:49:03;;;;;;;;;;;;;;;;;;4998634;28;19910;-77
2022/12/24 01:51:29;;;;;;;;;;;;;;;;;;4998549;28;19960;-76
2022/12/24 01:53:55;;;;;;;;;;;;;;;;;;4996991;28;19917;-76
2022/12/24 01:56:21;;;;;;;;;;;;;;;;;;4979960;28;19914;-77
2022/12/24 01:58:47;;;;;;;;;;;;;;;;;;4979395;28;20016;-77
2022/12/24 02:01:13;;;;;;;;;;;;;;;;;;4996713;28;19956;-77
2022/12/24 02:03:39;;;;;;;;;;;;;;;;;;4979872;28;19913;-77
2022/12/24 02:06:04;;;;;;;;;;;;;;;;;;4998303;28;19909;-77
2022/12/24 02:08:38;;;;;;;;;;;;;;;;;;4980514;28;20024;-77
2022/12/24 02:11:04;;;;;;;;;;;;;;;;;;4981278;28;19914;-76
2022/12/24 02:13:30;;;;;;;;;;;;;;;;;;4999580;28;19910;-78
2022/12/24 02:15:56;;;;;;;;;;;;;;;;;;4998502;28;19906;-77
2022/12/24 02:18:22;;;;;;;;;;;;;;;;;;4981593;28;19909;-76
2022/12/24 02:20:48;;;;;;;;;;;;;;;;;;4999783;28;20274;-77
2022/12/24 02:23:14;;;;;;;;;;;;;;;;;;4982688;28;19956;-77
2022/12/24 02:25:40;;;;;;;;;;;;;;;;;;4998509;28;20161;-78
2022/12/24 02:28:05;;;;;;;;;;;;;;;;;;4981185;28;19973;-78
2022/12/24 02:30:31;;;;;;;;;;;;;;;;;;4981707;28;20326;-78
2022/12/24 02:32:57;;;;;;;;;;;;;;;;;;4999188;28;19910;-78
2022/12/24 02:35:23;;;;;;;;;;;;;;;;;;4998865;28;19910;-78
2022/12/24 02:37:49;;;;;;;;;;;;;;;;;;4981565;28;20306;-77
2022/12/24 02:40:15;;;;;;;;;;;;;;;;;;4998276;28;19910;-78
2022/12/24 02:42:46;;;;;;;;;;;;;;;;;;4981420;28;20371;-77
2022/12/24 02:45:12;;;;;;;;;;;;;;;;;;4979512;28;19910;-77
2022/12/24 02:47:38;;;;;;;;;;;;;;;;;;4997513;28;19918;-78
2022/12/24 02:50:04;;;;;;;;;;;;;;;;;;4979925;28;20363;-78
2022/12/24 02:52:30;;;;;;;;;;;;;;;;;;4980227;28;19949;-77
2022/12/24 02:54:56;;;;;;;;;;;;;;;;;;4978700;28;19910;-76
2022/12/24 02:57:22;;;;;;;;;;;;;;;;;;4996605;28;19960;-77
2022/12/24 02:59:48;;;;;;;;;;;;;;;;;;4979027;28;19921;-77
2022/12/24 03:02:13;;;;;;;;;;;;;;;;;;4979511;28;19910;-77
2022/12/24 03:04:39;;;;;;;;;;;;;;;;;;4979299;28;19961;-77
2022/12/24 03:07:05;;;;;;;;;;;;;;;;;;5000566;28;19917;-77
2022/12/24 03:09:31;;;;;;;;;;;;;;;;;;4982970;28;19910;-78
2022/12/24 03:11:57;;;;;;;;;;;;;;;;;;5000903;28;20386;-77
2022/12/24 03:14:23;;;;;;;;;;;;;;;;;;4982801;28;19910;-77
2022/12/24 03:16:49;;;;;;;;;;;;;;;;;;4982570;28;20259;-77
2022/12/24 03:19:15;;;;;;;;;;;;;;;;;;5000352;28;20333;-77
2022/12/24 03:21:41;;;;;;;;;;;;;;;;;;4999412;28;20001;-77
2022/12/24 03:24:07;;;;;;;;;;;;;;;;;;5000220;28;20393;-77
2022/12/24 03:26:33;;;;;;;;;;;;;;;;;;4999754;28;19910;-77
2022/12/24 03:28:59;;;;;;;;;;;;;;;;;;4981389;28;19913;-78
2022/12/24 03:31:25;;;;;;;;;;;;;;;;;;5000638;28;19914;-77
2022/12/24 03:33:50;;;;;;;;;;;;;;;;;;4999998;28;20326;-77
2022/12/24 03:36:17;;;;;;;;;;;;;;;;;;4982031;28;20009;-76
2022/12/24 03:38:43;;;;;;;;;;;;;;;;;;5004185;28;20004;-76
2022/12/24 03:41:08;;;;;;;;;;;;;;;;;;4999701;28;20031;-76
2022/12/24 03:43:34;;;;;;;;;;;;;;;;;;5019227;28;19910;-76
2022/12/24 03:46:03;;;;;;;;;;;;;;;;;;5019472;28;19928;-74
2022/12/24 03:48:29;;;;;;;;;;;;;;;;;;5049908;23;19932;-78
2022/12/24 03:50:55;;;;;;;;;;;;;;;;;;5018029;28;19913;-80
2022/12/24 03:53:21;;;;;;;;;;;;;;;;;;5018026;28;19917;-78
2022/12/24 03:55:47;;;;;;;;;;;;;;;;;;5035611;28;19956;-80
2022/12/24 03:58:13;;;;;;;;;;;;;;;;;;5001014;28;19929;-78
2022/12/24 04:00:39;;;;;;;;;;;;;;;;;;5001997;28;20008;-81
2022/12/24 04:03:05;;;;;;;;;;;;;;;;;;5001626;28;20534;-80
2022/12/24 04:05:31;;;;;;;;;;;;;;;;;;4998450;28;19968;-79
2022/12/24 04:07:56;;;;;;;;;;;;;;;;;;4998824;28;20358;-81
2022/12/24 04:10:22;;;;;;;;;;;;;;;;;;4998628;28;19918;-78
2022/12/24 04:12:48;;;;;;;;;;;;;;;;;;4998219;28;20341;-78
2022/12/24 04:15:14;;;;;;;;;;;;;;;;;;4998485;28;19916;-78
2022/12/24 04:17:40;;;;;;;;;;;;;;;;;;4998253;28;19909;-81
2022/12/24 04:20:06;;;;;;;;;;;;;;;;;;4998001;28;19909;-78
2022/12/24 04:22:32;;;;;;;;;;;;;;;;;;4998276;28;19914;-80
2022/12/24 04:24:58;;;;;;;;;;;;;;;;;;4998211;28;19971;-79
2022/12/24 04:27:23;;;;;;;;;;;;;;;;;;4998253;28;19909;-80
2022/12/24 04:29:49;;;;;;;;;;;;;;;;;;4998322;28;19960;-81
2022/12/24 04:32:15;;;;;;;;;;;;;;;;;;4998276;28;19914;-81
2022/12/24 04:34:41;;;;;;;;;;;;;;;;;;4997843;28;20013;-80
2022/12/24 04:37:07;;;;;;;;;;;;;;;;;;5015626;28;20003;-79
2022/12/24 04:39:33;;;;;;;;;;;;;;;;;;4998065;28;19910;-81
2022/12/24 04:41:59;;;;;;;;;;;;;;;;;;4998293;28;19910;-80
2022/12/24 04:44:25;;;;;;;;;;;;;;;;;;4997875;28;19916;-80
2022/12/24 04:46:51;;;;;;;;;;;;;;;;;;5015123;28;19918;-81
2022/12/24 04:49:16;;;;;;;;;;;;;;;;;;5015338;28;19897;-78
2022/12/24 04:51:42;;;;;;;;;;;;;;;;;;4997598;28;20016;-78
2022/12/24 04:54:08;;;;;;;;;;;;;;;;;;4997507;28;19920;-79
2022/12/24 04:56:34;;;;;;;;;;;;;;;;;;4997877;28;19966;-81
2022/12/24 04:59:00;;;;;;;;;;;;;;;;;;5015227;28;19917;-79
2022/12/24 05:01:26;;;;;;;;;;;;;;;;;;4997812;28;19960;-81
2022/12/24 05:03:52;;;;;;;;;;;;;;;;;;4997442;28;19910;-80
2022/12/24 05:06:18;;;;;;;;;;;;;;;;;;4997515;28;19941;-80
2022/12/24 05:08:44;;;;;;;;;;;;;;;;;;4997701;28;19910;-81
2022/12/24 05:11:13;;;;;;;;;;;;;;;;;;5015335;28;19914;-80
2022/12/24 05:13:38;;;;;;;;;;;;;;;;;;4997422;28;19914;-80
2022/12/24 05:16:04;;;;;;;;;;;;;;;;;;4997057;28;19916;-80
2022/12/24 05:18:30;;;;;;;;;;;;;;;;;;4997057;28;19909;-80
2022/12/24 05:20:56;;;;;;;;;;;;;;;;;;5015127;28;19910;-80
2022/12/24 05:26:22;;;;;;;;;;;;;;;;;;5014720;28;19917;-81
2022/12/24 05:28:48;;;;;;;;;;;;;;;;;;4996474;28;19937;-80
2022/12/24 05:31:14;;;;;;;;;;;;;;;;;;5014512;28;19914;-80
2022/12/24 05:33:40;;;;;;;;;;;;;;;;;;4997074;28;19909;-80
2022/12/24 05:36:05;;;;;;;;;;;;;;;;;;4996393;28;20324;-81
2022/12/24 05:38:31;;;;;;;;;;;;;;;;;;4996831;28;19959;-80
2022/12/24 05:40:57;;;;;;;;;;;;;;;;;;4996987;28;19909;-80
2022/12/24 05:43:23;;;;;;;;;;;;;;;;;;4996914;28;20384;-80
2022/12/24 05:45:49;;;;;;;;;;;;;;;;;;4996542;28;19909;-81
2022/12/24 05:48:15;;;;;;;;;;;;;;;;;;4996398;28;19917;-80
2022/12/24 05:50:41;;;;;;;;;;;;;;;;;;4996672;28;19914;-80
2022/12/24 05:53:07;;;;;;;;;;;;;;;;;;4996621;28;19933;-80
2022/12/24 05:55:33;;;;;;;;;;;;;;;;;;4997182;28;19909;-81
2022/12/24 05:57:58;;;;;;;;;;;;;;;;;;5010046;28;20018;-80
2022/12/24 06:00:24;;;;;;;;;;;;;;;;;;5031182;28;20012;-80
2022/12/24 06:02:50;;;;;;;;;;;;;;;;;;5019341;28;20000;-81
2022/12/24 06:05:16;;;;;;;;;;;;;;;;;;4996663;28;20068;-81
2022/12/24 06:07:42;;;;;;;;;;;;;;;;;;4996564;28;19910;-81
2022/12/24 06:10:08;;;;;;;;;;;;;;;;;;4995936;28;19913;-81
2022/12/24 06:12:34;;;;;;;;;;;;;;;;;;5014295;28;19916;-81
2022/12/24 06:15:01;;;;;;;;;;;;;;;;;;4990094;28;20071;-81
2022/12/24 06:17:27;;;;;;;;;;;;;;;;;;4997350;28;19910;-80
2022/12/24 06:19:52;;;;;;;;;;;;;;;;;;5014573;28;19916;-78
2022/12/24 06:22:18;;;;;;;;;;;;;;;;;;4996451;28;19921;-78
2022/12/24 06:24:44;;;;;;;;;;;;;;;;;;4993549;28;19909;-78
2022/12/24 06:27:10;;;;;;;;;;;;;;;;;;5007769;28;19910;-77
2022/12/24 06:29:36;;;;;;;;;;;;;;;;;;4996468;28;19953;-81
2022/12/24 06:32:02;;;;;;;;;;;;;;;;;;4996207;28;19913;-80
2022/12/24 06:34:28;;;;;;;;;;;;;;;;;;4998145;28;20294;-78
2022/12/24 06:36:54;;;;;;;;;;;;;;;;;;4996109;28;19914;-81
2022/12/24 06:39:20;;;;;;;;;;;;;;;;;;4995112;28;19932;-79
2022/12/24 06:41:46;;;;;;;;;;;;;;;;;;4995643;28;19917;-78
2022/12/24 06:44:11;;;;;;;;;;;;;;;;;;5013246;28;20321;-79
2022/12/24 06:46:37;;;;;;;;;;;;;;;;;;5068211;23;19926;-80
2022/12/24 06:49:03;;;;;;;;;;;;;;;;;;4976145;28;19965;-80
2022/12/24 06:51:29;;;;;;;;;;;;;;;;;;4973658;28;19976;-80
2022/12/24 06:53:55;;;;;;;;;;;;;;;;;;4958788;28;19933;-79
2022/12/24 06:56:21;;;;;;;;;;;;;;;;;;4957922;28;19965;-80
2022/12/24 06:58:47;;;;;;;;;;;;;;;;;;4973976;28;19910;-80
2022/12/24 07:01:13;;;;;;;;;;;;;;;;;;4975669;28;19918;-80
2022/12/24 07:03:39;;;;;;;;;;;;;;;;;;4958184;28;20333;-80
2022/12/24 07:06:04;;;;;;;;;;;;;;;;;;4958530;28;19918;-81
2022/12/24 07:08:35;;;;;;;;;;;;;;;;;;4984583;28;19960;-80
2022/12/24 07:11:01;;;;;;;;;;;;;;;;;;4952299;28;19914;-81
2022/12/24 07:13:26;;;;;;;;;;;;;;;;;;4971919;28;19921;-80
2022/12/24 07:15:52;;;;;;;;;;;;;;;;;;5011194;23;19898;-81
2022/12/24 07:18:18;;;;;;;;;;;;;;;;;;5006155;28;20393;-81
2022/12/24 07:20:44;;;;;;;;;;;;;;;;;;5029945;28;19909;-78
2022/12/24 07:23:10;;;;;;;;;;;;;;;;;;5000324;28;20330;-79
2022/12/24 07:25:36;;;;;;;;;;;;;;;;;;5005069;28;19959;-78
2022/12/24 07:28:02;;;;;;;;;;;;;;;;;;5007144;28;20403;-79
2022/12/24 07:30:28;;;;;;;;;;;;;;;;;;4997553;28;20444;-79
2022/12/24 07:32:53;;;;;;;;;;;;;;;;;;5003216;28;19916;-78
2022/12/24 07:35:19;;;;;;;;;;;;;;;;;;5153241;23;20401;-80
2022/12/24 07:37:45;;;;;;;;;;;;;;;;;;4995137;28;20047;-82
2022/12/24 07:40:11;;;;;;;;;;;;;;;;;;4994358;28;19913;-80
2022/12/24 07:42:37;;;;;;;;;;;;;;;;;;4993174;28;20023;-80
2022/12/24 07:45:03;;;;;;;;;;;;;;;;;;4993461;28;19917;-80
2022/12/24 07:47:29;;;;;;;;;;;;;;;;;;4994455;28;19914;-81
2022/12/24 07:49:55;;;;;;;;;;;;;;;;;;4995272;28;19913;-81
2022/12/24 07:52:20;;;;;;;;;;;;;;;;;;4996434;28;19968;-81
2022/12/24 07:57:22;;;;;;;;;;;;;;;;;;5135507;23;19925;-80
2022/12/24 07:59:49;;;;;;;;;;;;;;;;;;5017798;28;20366;-79
2022/12/24 08:02:15;;;;;;;;;;;;;;;;;;4997284;28;19913;-79
2022/12/24 08:04:41;;;;;;;;;;;;;;;;;;4998862;28;19924;-81
2022/12/24 08:07:09;;;;;;;;;;;;;;;;;;5006272;28;19897;-81
2022/12/24 08:09:34;;;;;;;;;;;;;;;;;;5113746;23;19925;-78
2022/12/24 08:12:01;;;;;;;;;;;;;;;;;;4973241;28;19924;-79
2022/12/24 08:14:27;;;;;;;;;;;;;;;;;;4969616;28;19910;-80
2022/12/24 08:16:53;;;;;;;;;;;;;;;;;;5002584;28;19918;-81
2022/12/24 08:19:19;;;;;;;;;;;;;;;;;;4963937;28;19921;-81
2022/12/24 08:21:46;;;;;;;;;;;;;;;;;;4962246;28;19964;-82
2022/12/24 08:24:12;;;;;;;;;;;;;;;;;;4962413;28;19941;-77
2022/12/24 08:26:38;;;;;;;;;;;;;;;;;;4980191;28;20367;-78
2022/12/24 08:29:04;;;;;;;;;;;;;;;;;;4975636;28;19921;-77
2022/12/24 08:31:35;;;;;;;;;;;;;;;;;;4977391;28;19925;-80
2022/12/24 08:34:01;;;;;;;;;;;;;;;;;;4960593;28;19918;-81
2022/12/24 08:36:26;;;;;;;;;;;;;;;;;;4965892;28;20367;-80
2022/12/24 08:38:52;;;;;;;;;;;;;;;;;;4985619;28;19917;-81
2022/12/24 08:41:18;;;;;;;;;;;;;;;;;;4971536;28;20331;-81
2022/12/24 08:43:44;;;;;;;;;;;;;;;;;;5044090;23;19917;-82
2022/12/24 08:46:10;;;;;;;;;;;;;;;;;;5007339;28;19933;-82
2022/12/24 08:48:36;;;;;;;;;;;;;;;;;;4995679;28;19948;-79
2022/12/24 08:51:02;;;;;;;;;;;;;;;;;;5001026;28;19925;-81
2022/12/24 08:53:28;;;;;;;;;;;;;;;;;;4997778;28;19910;-81
2022/12/24 08:55:54;;;;;;;;;;;;;;;;;;4996550;28;19921;-82
2022/12/24 08:58:19;;;;;;;;;;;;;;;;;;4996448;28;19960;-79
2022/12/24 09:00:45;;;;;;;;;;;;;;;;;;4996331;28;19967;-79
2022/12/24 09:03:11;;;;;;;;;;;;;;;;;;4995614;28;19913;-81
2022/12/24 09:05:37;;;;;;;;;;;;;;;;;;4996005;28;19916;-81
2022/12/24 09:08:03;;;;;;;;;;;;;;;;;;5014645;28;19932;-81
2022/12/24 09:13:05;;;;;;;;;;;;;;;;;;5090760;23;19942;-82
2022/12/24 09:15:31;;;;;;;;;;;;;;;;;;5040869;28;20016;-80
2022/12/24 09:17:57;;;;;;;;;;;;;;;;;;5032736;28;20284;-81
2022/12/24 09:20:23;;;;;;;;;;;;;;;;;;5038293;28;19963;-82
2022/12/24 09:22:49;;;;;;;;;;;;;;;;;;5035462;28;19909;-81
2022/12/24 09:25:15;;;;;;;;;;;;;;;;;;5034635;28;20380;-82
2022/12/24 09:27:41;;;;;;;;;;;;;;;;;;4999067;28;19916;-82
2022/12/24 09:30:07;;;;;;;;;;;;;;;;;;5032787;28;19972;-82
2022/12/24 09:32:33;;;;;;;;;;;;;;;;;;5039506;28;19909;-81
2022/12/24 09:34:58;;;;;;;;;;;;;;;;;;5034044;28;20289;-79
2022/12/24 09:40:16;;;;;;;;;;;;;;;;;;4616823;26;19940;-81
2022/12/24 09:42:42;;;;;;;;;;;;;;;;;;5023426;28;19909;-81
2022/12/24 09:45:08;;;;;;;;;;;;;;;;;;5033082;28;19984;-81
2022/12/24 09:47:33;;;;;;;;;;;;;;;;;;5029891;23;20512;-77
2022/12/24 09:49:59;;;;;;;;;;;;;;;;;;5017267;28;20556;-77
2022/12/24 09:52:25;;;;;;;;;;;;;;;;;;5036217;28;19917;-76
2022/12/24 09:54:51;;;;;;;;;;;;;;;;;;5036633;28;19909;-76
2022/12/24 09:57:17;;;;;;;;;;;;;;;;;;5016107;28;19991;-77
2022/12/24 09:59:43;;;;;;;;;;;;;;;;;;5009323;28;19913;-76
2022/12/24 10:02:09;;;;;;;;;;;;;;;;;;5003533;28;19913;-76
2022/12/24 10:04:34;;;;;;;;;;;;;;;;;;5016026;28;19964;-76
2022/12/24 10:07:00;;;;;;;;;;;;;;;;;;5018110;28;19920;-76
2022/12/24 10:09:26;;;;;;;;;;;;;;;;;;5000037;28;20001;-75
2022/12/24 10:11:52;;;;;;;;;;;;;;;;;;4998534;28;19921;-77
2022/12/24 10:14:18;;;;;;;;;;;;;;;;;;5001491;28;19914;-77
2022/12/24 10:16:44;;;;;;;;;;;;;;;;;;4999467;28;20363;-76
2022/12/24 10:19:10;;;;;;;;;;;;;;;;;;5017404;28;20378;-77
2022/12/24 10:21:36;;;;;;;;;;;;;;;;;;5017784;28;19909;-76
2022/12/24 10:24:02;;;;;;;;;;;;;;;;;;5000535;28;19913;-78
2022/12/24 10:26:27;;;;;;;;;;;;;;;;;;4998213;28;20374;-77
2022/12/24 10:28:53;;;;;;;;;;;;;;;;;;5002916;28;19936;-77
2022/12/24 10:31:19;;;;;;;;;;;;;;;;;;5017664;28;20389;-77
2022/12/24 10:33:45;;;;;;;;;;;;;;;;;;5017565;28;19975;-76
2022/12/24 10:36:11;;;;;;;;;;;;;;;;;;4999568;28;20424;-77
2022/12/24 10:38:37;;;;;;;;;;;;;;;;;;4999170;28;19945;-77
2022/12/24 10:41:03;;;;;;;;;;;;;;;;;;4999184;28;20362;-78
2022/12/24 10:43:29;;;;;;;;;;;;;;;;;;5012600;28;19913;-77
2022/12/24 10:45:55;;;;;;;;;;;;;;;;;;4997486;28;20341;-77
2022/12/24 10:48:21;;;;;;;;;;;;;;;;;;4997637;28;19996;-77
2022/12/24 10:50:47;;;;;;;;;;;;;;;;;;5015719;28;19959;-77
2022/12/24 10:53:13;;;;;;;;;;;;;;;;;;5014863;28;19913;-79
2022/12/24 10:55:39;;;;;;;;;;;;;;;;;;5016726;28;19985;-77
2022/12/24 10:58:05;;;;;;;;;;;;;;;;;;4998089;28;19916;-80
2022/12/24 11:00:31;;;;;;;;;;;;;;;;;;4998131;28;19940;-78
2022/12/24 11:02:57;;;;;;;;;;;;;;;;;;4998388;28;19910;-77
2022/12/24 11:05:23;;;;;;;;;;;;;;;;;;4998070;28;19963;-77
2022/12/24 11:07:48;;;;;;;;;;;;;;;;;;5016323;28;19914;-77
2022/12/24 11:10:14;;;;;;;;;;;;;;;;;;5014874;28;19913;-76
2022/12/24 11:12:42;;;;;;;;;;;;;;;;;;5017419;28;20493;-76
2022/12/24 11:15:08;;;;;;;;;;;;;;;;;;5016692;28;19913;-77
2022/12/24 11:17:34;;;;;;;;;;;;;;;;;;4997838;28;19909;-75
2022/12/24 11:20:01;;;;;;;;;;;;;;;;;;5016897;28;19909;-77
2022/12/24 11:22:27;;;;;;;;;;;;;;;;;;4998126;28;20294;-77
2022/12/24 11:24:53;;;;;;;;;;;;;;;;;;5014183;28;19910;-77
2022/12/24 11:27:19;;;;;;;;;;;;;;;;;;5019330;28;19914;-76
2022/12/24 11:29:44;;;;;;;;;;;;;;;;;;5001455;28;20374;-77
2022/12/24 11:32:10;;;;;;;;;;;;;;;;;;5001660;28;19968;-76
2022/12/24 11:34:36;;;;;;;;;;;;;;;;;;5001508;28;19909;-76
2022/12/24 11:37:02;;;;;;;;;;;;;;;;;;5002374;28;20305;-77
2022/12/24 11:39:28;;;;;;;;;;;;;;;;;;5002736;28;19948;-79
2022/12/24 11:41:54;;;;;;;;;;;;;;;;;;5001180;28;19909;-77
2022/12/24 11:44:20;;;;;;;;;;;;;;;;;;5001334;28;19968;-76
2022/12/24 11:46:51;;;;;;;;;;;;;;;;;;5002150;28;19959;-77
2022/12/24 11:49:16;;;;;;;;;;;;;;;;;;5018988;28;19921;-76
2022/12/24 11:51:42;;;;;;;;;;;;;;;;;;5003486;28;19995;-78
2022/12/24 11:54:08;;;;;;;;;;;;;;;;;;5019576;28;19909;-77
2022/12/24 11:56:34;;;;;;;;;;;;;;;;;;5001499;28;19914;-77
2022/12/24 11:59:00;;;;;;;;;;;;;;;;;;5018424;28;19913;-79
2022/12/24 12:01:26;;;;;;;;;;;;;;;;;;5002616;28;19964;-77
2022/12/24 12:03:52;;;;;;;;;;;;;;;;;;5002267;28;19920;-78
2022/12/24 12:06:18;;;;;;;;;;;;;;;;;;5019486;28;19948;-76
2022/12/24 12:08:44;;;;;;;;;;;;;;;;;;5018258;28;19916;-78
2022/12/24 12:11:10;;;;;;;;;;;;;;;;;;5018115;28;20075;-79
2022/12/24 12:13:37;;;;;;;;;;;;;;;;;;5018600;28;19920;-77
2022/12/24 12:16:02;;;;;;;;;;;;;;;;;;5001718;28;19954;-77
2022/12/24 12:18:28;;;;;;;;;;;;;;;;;;5001478;28;19932;-77
2022/12/24 12:20:54;;;;;;;;;;;;;;;;;;5002033;28;19909;-77
2022/12/24 12:23:20;;;;;;;;;;;;;;;;;;5000652;28;19937;-77
2022/12/24 12:25:46;;;;;;;;;;;;;;;;;;5039092;28;19909;-79
2022/12/24 12:28:12;;;;;;;;;;;;;;;;;;5024971;28;19924;-77
2022/12/24 12:30:38;;;;;;;;;;;;;;;;;;5018793;28;19914;-77
2022/12/24 12:33:04;;;;;;;;;;;;;;;;;;5019526;28;19933;-77
2022/12/24 12:35:30;;;;;;;;;;;;;;;;;;5000808;28;19952;-77
2022/12/24 12:37:57;;;;;;;;;;;;;;;;;;5017375;28;19925;-76
2022/12/24 12:40:22;;;;;;;;;;;;;;;;;;5015175;28;19954;-76
2022/12/24 12:42:48;;;;;;;;;;;;;;;;;;5015502;28;19990;-75
2022/12/24 12:45:14;;;;;;;;;;;;;;;;;;5014982;28;20000;-74
2022/12/24 12:47:40;;;;;;;;;;;;;;;;;;5014216;28;19941;-77
2022/12/24 12:50:07;;;;;;;;;;;;;;;;;;4997575;28;19920;-75
2022/12/24 12:52:33;;;;;;;;;;;;;;;;;;4997234;28;20008;-75
2022/12/24 12:54:58;;;;;;;;;;;;;;;;;;4997743;28;19956;-76
2022/12/24 12:57:24;;;;;;;;;;;;;;;;;;5014596;28;19910;-73
2022/12/24 12:59:50;;;;;;;;;;;;;;;;;;4997226;28;20008;-74
2022/12/24 13:02:16;;;;;;;;;;;;;;;;;;5014709;28;20007;-74
2022/12/24 13:04:42;;;;;;;;;;;;;;;;;;4997062;28;19936;-74
2022/12/24 13:07:08;;;;;;;;;;;;;;;;;;5014637;28;19960;-74
2022/12/24 13:09:34;;;;;;;;;;;;;;;;;;4996055;28;20362;-73
2022/12/24 13:12:00;;;;;;;;;;;;;;;;;;5014482;28;20008;-75
2022/12/24 13:14:26;;;;;;;;;;;;;;;;;;5013808;28;20517;-74
2022/12/24 13:16:51;;;;;;;;;;;;;;;;;;5014661;28;19918;-75
2022/12/24 13:19:17;;;;;;;;;;;;;;;;;;5014291;28;19909;-75
2022/12/24 13:21:43;;;;;;;;;;;;;;;;;;5014257;28;19913;-75
2022/12/24 13:24:09;;;;;;;;;;;;;;;;;;5013862;28;20293;-75
2022/12/24 13:26:35;;;;;;;;;;;;;;;;;;5014090;28;19913;-75
2022/12/24 13:29:01;;;;;;;;;;;;;;;;;;4996227;28;19909;-77
2022/12/24 13:31:28;;;;;;;;;;;;;;;;;;5014308;28;19917;-74
2022/12/24 13:33:54;;;;;;;;;;;;;;;;;;5014577;28;19996;-75
2022/12/24 13:36:20;;;;;;;;;;;;;;;;;;4996904;28;19963;-75
2022/12/24 13:38:46;;;;;;;;;;;;;;;;;;5013771;28;20328;-74
2022/12/24 13:41:12;;;;;;;;;;;;;;;;;;5014113;28;19920;-75
2022/12/24 13:43:37;;;;;;;;;;;;;;;;;;5014401;28;20492;-76
2022/12/24 13:46:03;;;;;;;;;;;;;;;;;;5014055;28;19909;-76
2022/12/24 13:48:29;;;;;;;;;;;;;;;;;;5012963;28;20062;-75
2022/12/24 13:50:55;;;;;;;;;;;;;;;;;;5014255;28;20445;-76
2022/12/24 13:53:22;;;;;;;;;;;;;;;;;;4996523;28;19944;-74
2022/12/24 13:55:48;;;;;;;;;;;;;;;;;;5014139;28;19999;-75
2022/12/24 13:58:14;;;;;;;;;;;;;;;;;;5014106;28;19909;-75
2022/12/24 14:00:40;;;;;;;;;;;;;;;;;;5013908;28;19980;-75
2022/12/24 14:03:05;;;;;;;;;;;;;;;;;;4995942;28;19914;-75
2022/12/24 14:05:31;;;;;;;;;;;;;;;;;;5012621;28;19967;-76
2022/12/24 14:07:57;;;;;;;;;;;;;;;;;;5013956;28;19944;-76
2022/12/24 14:10:23;;;;;;;;;;;;;;;;;;4996281;28;19933;-75
2022/12/24 14:12:49;;;;;;;;;;;;;;;;;;4996221;28;19917;-76
2022/12/24 14:15:15;;;;;;;;;;;;;;;;;;5013499;28;19916;-76
2022/12/24 14:17:41;;;;;;;;;;;;;;;;;;4994971;28;19913;-76
2022/12/24 14:20:07;;;;;;;;;;;;;;;;;;5013155;28;19910;-76
2022/12/24 14:22:33;;;;;;;;;;;;;;;;;;5013363;28;19916;-76
2022/12/24 14:24:59;;;;;;;;;;;;;;;;;;4995942;28;20011;-75
2022/12/24 14:27:25;;;;;;;;;;;;;;;;;;4995584;28;19916;-75
2022/12/24 14:29:51;;;;;;;;;;;;;;;;;;4995651;28;19909;-75
2022/12/24 14:32:17;;;;;;;;;;;;;;;;;;5012698;28;19914;-76
2022/12/24 14:34:43;;;;;;;;;;;;;;;;;;5013075;28;19918;-76
2022/12/24 14:37:08;;;;;;;;;;;;;;;;;;5013018;28;20001;-76
2022/12/24 14:39:34;;;;;;;;;;;;;;;;;;4993685;28;19909;-76
2022/12/24 14:42:00;;;;;;;;;;;;;;;;;;4993376;28;20004;-75
2022/12/24 14:44:26;;;;;;;;;;;;;;;;;;5011843;28;19914;-74
2022/12/24 14:46:53;;;;;;;;;;;;;;;;;;4994686;28;19964;-75
2022/12/24 14:49:19;;;;;;;;;;;;;;;;;;4999564;28;19967;-75
2022/12/24 14:51:44;;;;;;;;;;;;;;;;;;5013010;28;20289;-75
2022/12/24 14:54:10;;;;;;;;;;;;;;;;;;5012723;28;19916;-75
2022/12/24 14:56:36;;;;;;;;;;;;;;;;;;5012645;28;20271;-75
2022/12/24 14:59:05;;;;;;;;;;;;;;;;;;5012006;28;19914;-75
2022/12/24 15:01:33;;;;;;;;;;;;;;;;;;5013445;28;20028;-75
2022/12/24 15:03:58;;;;;;;;;;;;;;;;;;5016542;28;19921;-74
2022/12/24 15:06:24;;;;;;;;;;;;;;;;;;5016164;28;19909;-75
2022/12/24 15:08:50;;;;;;;;;;;;;;;;;;4998220;28;19905;-74
2022/12/24 15:11:16;;;;;;;;;;;;;;;;;;5007980;28;19917;-75
2022/12/24 15:13:42;;;;;;;;;;;;;;;;;;5016600;28;19957;-74
2022/12/24 15:16:08;;;;;;;;;;;;;;;;;;5015393;28;20047;-74
2022/12/24 15:18:34;;;;;;;;;;;;;;;;;;5004692;28;19914;-75
2022/12/24 15:21:00;;;;;;;;;;;;;;;;;;5016364;28;19913;-74
2022/12/24 15:23:26;;;;;;;;;;;;;;;;;;5016239;28;19909;-73
2022/12/24 15:25:52;;;;;;;;;;;;;;;;;;5016598;28;19920;-74
2022/12/24 15:28:18;;;;;;;;;;;;;;;;;;5016370;28;19909;-74
2022/12/24 15:30:44;;;;;;;;;;;;;;;;;;4999181;28;19913;-75
2022/12/24 15:33:10;;;;;;;;;;;;;;;;;;5016119;28;19914;-75
2022/12/24 15:35:36;;;;;;;;;;;;;;;;;;4998323;28;19913;-75
2022/12/24 15:38:02;;;;;;;;;;;;;;;;;;4998910;28;19917;-76
2022/12/24 15:40:28;;;;;;;;;;;;;;;;;;4999037;28;19975;-75
2022/12/24 15:42:53;;;;;;;;;;;;;;;;;;5016534;28;19917;-75
2022/12/24 15:45:19;;;;;;;;;;;;;;;;;;4998393;28;19960;-76
2022/12/24 15:47:45;;;;;;;;;;;;;;;;;;5015050;28;19919;-75
2022/12/24 15:50:11;;;;;;;;;;;;;;;;;;4997860;28;20008;-76
2022/12/24 15:52:37;;;;;;;;;;;;;;;;;;5015215;28;19914;-76
2022/12/24 15:55:03;;;;;;;;;;;;;;;;;;5014955;28;19913;-76
2022/12/24 15:57:29;;;;;;;;;;;;;;;;;;5008936;28;20000;-76
2022/12/24 15:59:55;;;;;;;;;;;;;;;;;;5014320;28;19910;-76
2022/12/24 16:02:21;;;;;;;;;;;;;;;;;;5008231;28;19914;-76
2022/12/24 16:04:47;;;;;;;;;;;;;;;;;;4998193;28;19916;-76
2022/12/24 16:07:13;;;;;;;;;;;;;;;;;;4998075;28;19913;-76
2022/12/24 16:09:40;;;;;;;;;;;;;;;;;;4997916;28;19917;-75
2022/12/24 16:12:06;;;;;;;;;;;;;;;;;;5015348;28;19969;-76
2022/12/24 16:14:32;;;;;;;;;;;;;;;;;;5015604;28;19918;-74
2022/12/24 16:16:57;;;;;;;;;;;;;;;;;;5014557;28;19910;-74
2022/12/24 16:19:23;;;;;;;;;;;;;;;;;;5015060;28;19991;-75
2022/12/24 16:21:49;;;;;;;;;;;;;;;;;;5015523;28;19913;-75
2022/12/24 16:24:15;;;;;;;;;;;;;;;;;;5014819;28;20289;-75
2022/12/24 16:26:41;;;;;;;;;;;;;;;;;;4997776;28;19910;-75
2022/12/24 16:29:07;;;;;;;;;;;;;;;;;;5015316;28;19905;-75
2022/12/24 16:31:33;;;;;;;;;;;;;;;;;;4997170;28;19940;-76
2022/12/24 16:33:59;;;;;;;;;;;;;;;;;;5015298;28;20390;-74
2022/12/24 16:36:25;;;;;;;;;;;;;;;;;;5015000;28;20320;-76
2022/12/24 16:43:48;;;;;;;;;;;;;;;;;;5015463;28;19916;-76
2022/12/24 16:44:21;;;;;;;;;;;;;;;;;;5015046;28;19909;-75
2022/12/24 16:46:47;;;;;;;;;;;;;;;;;;4997179;28;19920;-75
2022/12/24 16:49:12;;;;;;;;;;;;;;;;;;4997234;28;20396;-75
2022/12/24 16:51:38;;;;;;;;;;;;;;;;;;5014454;28;19913;-75
2022/12/24 16:54:04;;;;;;;;;;;;;;;;;;4997097;28;19909;-76
2022/12/24 16:56:30;;;;;;;;;;;;;;;;;;4997375;28;19909;-75